Time;durP1;ratioP1;P1;durP2;ratioP2;P2;SDS_P1;SDS_P2;PMS_P1;PMS_P2;Temp;Humidity;BMP_temperature;BMP_pressure;BME280_temperature;BME280_humidity;BME280_pressure;Samples;Min_cycle;Max_cycle;Signal;HPM_P1;HPM_P2
2021/05/26 00:00:07;;;;;;;2.85;1.25;;;;;;;9.95;69.83;95796.84;1019669;29;20028;-77
2021/05/26 00:00:38;;;;;;;1.38;0.80;;;;;;;9.79;69.99;95765.97;1032881;28;20528;-77
2021/05/26 00:01:09;;;;;;;2.72;0.75;;;;;;;10.00;69.82;95791.03;1028848;29;20023;-76
2021/05/26 00:01:39;;;;;;;2.33;0.95;;;;;;;9.88;69.53;95782.63;1028467;28;20058;-77
2021/05/26 00:02:10;;;;;;;3.00;1.00;;;;;;;10.04;69.58;95794.16;1023439;29;20027;-77
2021/05/26 00:02:41;;;;;;;3.80;0.98;;;;;;;9.98;70.12;95785.88;1027566;28;20025;-78
2021/05/26 00:03:11;;;;;;;4.50;1.13;;;;;;;9.84;69.73;95762.78;1025238;28;20090;-77
2021/05/26 00:03:42;;;;;;;2.65;0.93;;;;;;;9.92;70.10;95775.97;1025359;29;20462;-78
2021/05/26 00:04:13;;;;;;;2.65;1.02;;;;;;;9.91;69.88;95771.69;1024580;29;20118;-76
2021/05/26 00:04:43;;;;;;;1.83;0.82;;;;;;;10.00;69.36;95797.16;1024675;29;20027;-76
2021/05/26 00:05:14;;;;;;;1.75;0.73;;;;;;;9.79;69.98;95757.19;1024539;28;20029;-77
2021/05/26 00:05:47;;;;;;;2.72;0.95;;;;;;;9.96;70.25;95777.28;1020372;29;20023;-76
2021/05/26 00:06:18;;;;;;;6.30;1.17;;;;;;;9.92;69.93;95778.63;1020357;29;20034;-77
2021/05/26 00:06:49;;;;;;;2.45;0.90;;;;;;;9.98;70.63;95790.38;1024645;29;20121;-76
2021/05/26 00:07:19;;;;;;;1.88;0.80;;;;;;;9.76;70.51;95747.72;1020404;29;20043;-76
2021/05/26 00:07:50;;;;;;;2.08;0.80;;;;;;;9.79;70.20;95759.84;1024310;29;20087;-76
2021/05/26 00:08:34;;;;;;;2.08;0.80;;;;;;;9.94;70.31;95779.28;1023945;29;20026;-76
2021/05/26 00:09:05;;;;;;;2.55;0.80;;;;;;;9.95;70.46;95783.59;1036421;28;20128;-77
2021/05/26 00:09:35;;;;;;;3.45;1.00;;;;;;;9.86;70.19;95766.09;1024369;29;20031;-78
2021/05/26 00:10:07;;;;;;;3.33;0.95;;;;;;;9.98;70.62;95783.25;1032630;28;20124;-77
2021/05/26 00:10:38;;;;;;;3.58;1.00;;;;;;;9.94;70.52;95775.81;1032512;28;20113;-77
2021/05/26 00:11:10;;;;;;;3.13;1.17;;;;;;;9.97;70.35;95784.22;1032404;28;20037;-77
2021/05/26 00:11:41;;;;;;;3.17;1.10;;;;;;;9.75;70.12;95751.41;1036433;28;20026;-77
2021/05/26 00:12:14;;;;;;;3.28;1.10;;;;;;;9.95;70.39;95770.31;1024668;29;20374;-76
2021/05/26 00:12:44;;;;;;;2.67;0.82;;;;;;;10.00;70.99;95780.41;1028722;28;20393;-77
2021/05/26 00:13:15;;;;;;;3.33;0.85;;;;;;;9.97;70.60;95776.28;1036379;28;20081;-77
2021/05/26 00:13:46;;;;;;;2.60;0.75;;;;;;;9.96;70.98;95773.78;1028520;28;20057;-77
2021/05/26 00:14:17;;;;;;;2.65;0.93;;;;;;;9.99;70.90;95781.41;1024790;29;20100;-76
2021/05/26 00:14:47;;;;;;;2.33;0.80;;;;;;;9.93;70.84;95769.69;1024585;29;20031;-78
2021/05/26 00:15:18;;;;;;;2.72;0.90;;;;;;;9.82;70.20;95755.00;1024869;28;20028;-77
2021/05/26 00:15:49;;;;;;;2.05;0.90;;;;;;;9.92;70.52;95762.72;1028518;28;20497;-77
2021/05/26 00:16:22;;;;;;;1.35;0.70;;;;;;;9.99;70.70;95776.09;1029536;28;20023;-78
2021/05/26 00:16:52;;;;;;;1.75;0.80;;;;;;;9.89;70.46;95762.25;1025289;29;20027;-76
2021/05/26 00:17:23;;;;;;;3.35;1.00;;;;;;;9.81;70.39;95749.88;1033405;28;20117;-78
2021/05/26 00:17:54;;;;;;;2.65;0.80;;;;;;;9.98;70.59;95777.94;1025353;29;20081;-77
2021/05/26 00:18:24;;;;;;;2.55;0.80;;;;;;;10.00;70.50;95773.28;1025145;29;20477;-76
2021/05/26 00:18:55;;;;;;;3.40;1.02;;;;;;;9.91;70.32;95763.72;1025030;29;20512;-77
2021/05/26 00:19:26;;;;;;;12.27;1.08;;;;;;;9.89;70.76;95756.94;1029145;28;20027;-78
2021/05/26 00:19:57;;;;;;;4.38;0.98;;;;;;;10.02;70.71;95782.91;1028925;28;20415;-77
2021/05/26 00:20:28;;;;;;;5.53;1.00;;;;;;;9.89;70.50;95752.47;1025144;29;20082;-77
2021/05/26 00:21:00;;;;;;;4.90;1.13;;;;;;;10.02;70.33;95777.59;1029207;28;20130;-77
2021/05/26 00:21:30;;;;;;;2.28;0.80;;;;;;;9.93;70.77;95763.56;1033166;28;20029;-78
2021/05/26 00:22:01;;;;;;;3.00;0.80;;;;;;;10.02;70.24;95777.59;1025339;28;20509;-78
2021/05/26 00:22:32;;;;;;;2.90;0.88;;;;;;;10.00;70.04;95760.00;1021048;29;20389;-76
2021/05/26 00:23:02;;;;;;;4.55;1.02;;;;;;;10.00;70.32;95775.09;1033156;28;20025;-78
2021/05/26 00:23:33;;;;;;;5.88;1.00;;;;;;;10.05;70.75;95771.91;1017181;29;20095;-77
2021/05/26 00:24:04;;;;;;;3.45;1.05;;;;;;;10.06;70.50;95778.88;1024876;28;20019;-78
2021/05/26 00:24:35;;;;;;;3.22;0.90;;;;;;;10.03;70.69;95764.13;1021768;29;20011;-77
2021/05/26 00:25:06;;;;;;;1.83;0.90;;;;;;;9.97;70.62;95751.56;1029073;28;20029;-78
2021/05/26 00:25:37;;;;;;;1.55;0.85;;;;;;;10.07;70.38;95770.75;1028950;28;20477;-77
2021/05/26 00:26:07;;;;;;;2.33;0.80;;;;;;;10.06;70.24;95760.31;1024938;29;20015;-77
2021/05/26 00:26:38;;;;;;;4.03;1.00;;;;;;;10.08;70.80;95766.25;1029082;28;20046;-78
2021/05/26 00:27:08;;;;;;;1.80;0.70;;;;;;;10.05;70.77;95771.91;1033299;28;20018;-78
2021/05/26 00:27:39;;;;;;;2.30;0.82;;;;;;;10.03;71.32;95766.78;1025189;28;20015;-78
2021/05/26 00:28:10;;;;;;;2.17;0.90;;;;;;;9.91;71.43;95755.78;1028933;28;20026;-78
2021/05/26 00:28:43;;;;;;;3.10;0.98;;;;;;;9.71;70.49;95723.56;1025105;29;20099;-77
2021/05/26 00:29:13;;;;;;;4.13;1.10;;;;;;;9.99;70.83;95773.44;1033411;28;20030;-77
2021/05/26 00:29:48;;;;;;;2.13;0.70;;;;;;;9.95;70.88;95767.66;1032981;28;20026;-78
2021/05/26 00:30:19;;;;;;;1.23;0.70;;;;;;;9.90;70.44;95761.25;1028899;28;20480;-77
2021/05/26 00:30:50;;;;;;;2.75;1.00;;;;;;;9.83;71.21;95747.84;1034350;28;20504;-76
2021/05/26 00:31:23;;;;;;;1.92;1.00;;;;;;;9.81;71.16;95747.22;1029280;28;20381;-77
2021/05/26 00:31:53;;;;;;;2.90;0.90;;;;;;;9.88;71.56;95763.25;1033133;28;20022;-78
2021/05/26 00:32:24;;;;;;;3.33;0.90;;;;;;;9.80;71.27;95754.34;1029094;28;20097;-77
2021/05/26 00:32:55;;;;;;;4.45;1.10;;;;;;;9.85;71.57;95755.66;1024841;29;20174;-77
2021/05/26 00:33:58;;;;;;;3.30;1.08;;;;;;;9.79;72.34;95741.28;1015286;29;20111;-77
2021/05/26 00:34:29;;;;;;;1.80;0.70;;;;;;;9.83;71.59;95753.16;1020882;29;20035;-77
2021/05/26 00:34:59;;;;;;;2.75;0.82;;;;;;;9.85;71.69;95755.66;1017172;29;20462;-77
2021/05/26 00:35:30;;;;;;;5.25;0.90;;;;;;;9.84;71.53;95760.13;1021034;29;20019;-77
2021/05/26 00:36:01;;;;;;;2.33;0.80;;;;;;;9.87;71.43;95769.56;1021020;29;20028;-76
2021/05/26 00:36:31;;;;;;;2.40;0.88;;;;;;;9.75;71.79;95745.25;1020840;29;20469;-78
2021/05/26 00:37:04;;;;;;;2.22;1.05;;;;;;;9.88;71.79;95760.59;1009389;29;20025;-79
2021/05/26 00:37:34;;;;;;;3.58;0.82;;;;;;;9.89;71.66;95763.09;1017261;29;20426;-78
2021/05/26 00:38:05;;;;;;;3.22;0.85;;;;;;;9.84;71.75;95751.31;1021178;29;20026;-78
2021/05/26 00:38:36;;;;;;;3.33;1.02;;;;;;;9.90;71.54;95758.59;1020991;28;20024;-77
2021/05/26 00:39:06;;;;;;;2.85;0.90;;;;;;;9.91;71.44;95755.78;1020752;29;20008;-77
2021/05/26 00:39:37;;;;;;;1.98;0.95;;;;;;;9.88;71.72;95758.75;1017069;29;20038;-77
2021/05/26 00:40:08;;;;;;;1.90;0.82;;;;;;;9.92;71.41;95761.88;1009253;29;20072;-77
2021/05/26 00:40:39;;;;;;;3.90;1.25;;;;;;;9.86;71.90;95747.50;1017003;29;20110;-77
2021/05/26 00:41:10;;;;;;;3.13;0.80;;;;;;;9.84;71.49;95741.56;1024817;29;20019;-78
2021/05/26 00:41:41;;;;;;;1.95;0.77;;;;;;;9.75;71.26;95732.00;1016945;29;20108;-78
2021/05/26 00:42:11;;;;;;;2.92;1.08;;;;;;;9.91;71.60;95758.44;1020761;29;20016;-77
2021/05/26 00:42:42;;;;;;;2.95;1.00;;;;;;;9.92;71.98;95759.25;1012906;29;20080;-76
2021/05/26 00:43:15;;;;;;;4.80;1.30;;;;;;;9.93;71.85;95758.25;1012968;29;20444;-76
2021/05/26 00:43:45;;;;;;;2.40;0.70;;;;;;;9.91;71.36;95754.94;1013065;29;20093;-78
2021/05/26 00:44:16;;;;;;;3.00;1.38;;;;;;;9.75;72.08;95724.88;1013113;29;20017;-77
2021/05/26 00:44:51;;;;;;;2.50;1.23;;;;;;;9.70;72.09;95729.88;1016854;29;20072;-77
2021/05/26 00:45:22;;;;;;;2.85;0.90;;;;;;;9.76;72.19;95734.47;1013094;29;20025;-77
2021/05/26 00:45:52;;;;;;;2.78;0.75;;;;;;;9.76;71.89;95747.72;1016798;29;20043;-77
2021/05/26 00:46:23;;;;;;;3.97;1.10;;;;;;;9.54;72.33;95712.22;1020819;29;20012;-77
2021/05/26 00:46:54;;;;;;;2.15;0.90;;;;;;;9.69;71.98;95740.66;1024581;29;20023;-76
2021/05/26 00:47:41;;;;;;;1.88;0.77;;;;;;;9.70;72.55;95735.19;1009129;29;20555;-77
2021/05/26 00:48:12;;;;;;;5.70;0.85;;;;;;;9.67;72.52;95734.72;1008965;29;20428;-77
2021/05/26 00:48:42;;;;;;;2.42;0.85;;;;;;;9.77;72.31;95751.19;1016658;29;20016;-76
2021/05/26 00:49:13;;;;;;;3.13;0.82;;;;;;;9.69;72.60;95738.03;1012789;29;20024;-76
2021/05/26 00:49:44;;;;;;;4.50;0.90;;;;;;;9.70;72.59;95748.44;1009177;29;20029;-77
2021/05/26 00:50:19;;;;;;;2.45;0.95;;;;;;;9.60;72.48;95724.81;1013019;29;20410;-76
2021/05/26 00:50:50;;;;;;;2.83;1.23;;;;;;;9.46;72.48;95714.97;1012886;29;20028;-76
2021/05/26 00:51:21;;;;;;;2.25;0.98;;;;;;;9.68;72.84;95754.91;1013033;29;20016;-76
2021/05/26 00:51:51;;;;;;;2.05;0.70;;;;;;;9.56;73.29;95735.91;1016841;29;20013;-77
2021/05/26 00:52:22;;;;;;;2.28;0.85;;;;;;;9.65;73.61;95749.94;1013119;29;20522;-76
2021/05/26 00:52:53;;;;;;;3.95;0.80;;;;;;;9.64;73.01;95749.13;1020723;29;20016;-76
2021/05/26 00:53:24;;;;;;;2.28;0.82;;;;;;;9.54;73.39;95733.44;1013096;29;20420;-76
2021/05/26 00:53:55;;;;;;;1.77;0.73;;;;;;;9.54;73.60;95732.63;1016946;29;20386;-76
2021/05/26 00:54:25;;;;;;;4.13;1.00;;;;;;;9.56;73.90;95731.47;1016780;29;20020;-76
2021/05/26 00:54:56;;;;;;;2.25;1.08;;;;;;;9.62;73.23;95746.66;1012749;29;20027;-76
2021/05/26 00:55:27;;;;;;;4.18;1.20;;;;;;;9.63;73.55;95745.66;1020996;29;20505;-77
2021/05/26 00:55:58;;;;;;;2.63;0.90;;;;;;;9.52;73.67;95730.16;1017163;29;20056;-76
2021/05/26 00:56:28;;;;;;;3.70;1.08;;;;;;;9.60;73.59;95732.75;1017000;29;20016;-76
2021/05/26 00:57:00;;;;;;;1.88;0.90;;;;;;;9.55;73.48;95724.50;1020732;29;20012;-76
2021/05/26 00:57:31;;;;;;;2.92;0.95;;;;;;;9.43;73.71;95715.31;1013035;29;20028;-76
2021/05/26 00:58:01;;;;;;;3.28;1.00;;;;;;;9.61;73.66;95742.38;1016788;29;20012;-76
2021/05/26 00:58:32;;;;;;;2.28;0.70;;;;;;;9.53;73.72;95731.00;1020625;29;20024;-76
2021/05/26 00:59:04;;;;;;;4.43;0.77;;;;;;;9.47;74.27;95736.97;1009038;29;20017;-77
2021/05/26 00:59:35;;;;;;;2.20;0.95;;;;;;;9.33;73.74;95710.19;1020734;29;20024;-77
2021/05/26 01:00:07;;;;;;;2.78;0.75;;;;;;;9.53;74.01;95739.75;1020894;29;20062;-77
2021/05/26 01:00:39;;;;;;;2.35;0.80;;;;;;;9.47;73.88;95731.69;1017282;29;20020;-76
2021/05/26 01:01:10;;;;;;;2.38;1.00;;;;;;;9.47;74.08;95734.31;1012938;29;20057;-77
2021/05/26 01:01:41;;;;;;;2.30;1.25;;;;;;;9.53;74.07;95737.13;1016826;29;20120;-78
2021/05/26 01:02:12;;;;;;;2.97;1.05;;;;;;;9.49;73.90;95738.47;1017000;29;20087;-75
2021/05/26 01:02:42;;;;;;;2.08;0.93;;;;;;;9.48;73.59;95744.75;1017060;29;20044;-76
2021/05/26 01:03:13;;;;;;;1.73;0.70;;;;;;;9.37;74.36;95726.59;1013161;29;20025;-76
2021/05/26 01:03:44;;;;;;;1.85;0.88;;;;;;;9.41;74.29;95733.22;1016871;29;20016;-76
2021/05/26 01:04:14;;;;;;;1.73;0.77;;;;;;;9.41;74.50;95741.97;1020849;29;20058;-77
2021/05/26 01:04:45;;;;;;;3.40;0.98;;;;;;;9.39;74.12;95740.50;1012584;29;20017;-78
2021/05/26 01:05:16;;;;;;;2.00;0.70;;;;;;;9.35;74.54;95728.59;1024865;29;20015;-77
2021/05/26 01:05:46;;;;;;;3.20;0.90;;;;;;;9.42;74.31;95743.63;1020869;29;20537;-76
2021/05/26 01:06:17;;;;;;;2.63;0.90;;;;;;;9.42;74.41;95740.13;1028612;28;20042;-76
2021/05/26 01:06:48;;;;;;;2.42;0.70;;;;;;;9.38;74.71;95737.00;1016858;29;20114;-77
2021/05/26 01:07:18;;;;;;;3.35;0.70;;;;;;;9.30;74.59;95720.31;1024603;29;20471;-78
2021/05/26 01:07:49;;;;;;;3.75;1.20;;;;;;;9.45;74.26;95734.50;1016793;29;20016;-75
2021/05/26 01:08:20;;;;;;;3.20;0.80;;;;;;;9.36;74.53;95733.72;1016798;29;20020;-78
2021/05/26 01:08:52;;;;;;;2.20;0.80;;;;;;;9.34;74.62;95721.66;1017318;29;20023;-78
2021/05/26 01:09:25;;;;;;;2.13;0.85;;;;;;;9.39;74.85;95732.56;1017321;29;20060;-76
2021/05/26 01:09:57;;;;;;;1.52;0.63;;;;;;;9.38;74.85;95744.97;1016771;29;20520;-78
2021/05/26 01:10:29;;;;;;;2.08;0.90;;;;;;;9.17;74.69;95703.16;1020771;29;20027;-78
2021/05/26 01:11:02;;;;;;;2.80;0.77;;;;;;;9.16;74.60;95698.03;1020702;29;20115;-75
2021/05/26 01:11:33;;;;;;;1.27;0.63;;;;;;;9.31;74.77;95727.28;1013007;29;20119;-76
2021/05/26 01:12:04;;;;;;;4.70;1.20;;;;;;;9.06;74.54;95682.38;1020891;29;20554;-76
2021/05/26 01:12:35;;;;;;;1.40;0.85;;;;;;;9.28;74.74;95722.34;1016806;29;20027;-76
2021/05/26 01:13:06;;;;;;;4.30;0.82;;;;;;;9.20;74.99;95713.44;1012941;29;20036;-76
2021/05/26 01:13:36;;;;;;;3.33;0.93;;;;;;;9.20;74.55;95716.06;1017084;29;20030;-76
2021/05/26 01:14:07;;;;;;;3.55;0.77;;;;;;;9.31;74.92;95720.16;1013246;29;20111;-78
2021/05/26 01:14:37;;;;;;;2.08;0.98;;;;;;;9.31;75.08;95728.09;1021074;29;20576;-76
2021/05/26 01:15:09;;;;;;;2.67;0.80;;;;;;;9.29;74.73;95726.66;1009208;29;20100;-77
2021/05/26 01:15:41;;;;;;;3.17;1.00;;;;;;;9.21;75.29;95715.09;1017614;29;20020;-78
2021/05/26 01:16:11;;;;;;;1.33;0.70;;;;;;;9.18;75.27;95707.47;1017129;29;20036;-78
2021/05/26 01:16:42;;;;;;;1.67;0.88;;;;;;;9.17;75.58;95705.00;1013339;29;20407;-78
2021/05/26 01:17:12;;;;;;;5.25;1.23;;;;;;;9.18;75.19;95706.66;1016882;29;20398;-77
2021/05/26 01:17:43;;;;;;;4.55;1.00;;;;;;;9.31;75.37;95730.75;1020954;29;20099;-77
2021/05/26 01:18:23;;;;;;;2.33;0.98;;;;;;;9.29;75.17;95722.16;1013203;29;20025;-76
2021/05/26 01:18:54;;;;;;;3.40;0.90;;;;;;;9.21;75.46;95712.44;1021081;29;20614;-76
2021/05/26 01:19:24;;;;;;;1.92;0.98;;;;;;;9.27;74.95;95726.81;1017112;29;20085;-76
2021/05/26 01:19:55;;;;;;;1.98;0.75;;;;;;;9.22;75.36;95716.72;1024890;29;20016;-76
2021/05/26 01:20:27;;;;;;;1.83;0.80;;;;;;;9.27;75.27;95718.06;1021272;28;20637;-77
2021/05/26 01:20:59;;;;;;;3.28;0.60;;;;;;;9.03;75.25;95688.00;1020967;29;20039;-78
2021/05/26 01:21:30;;;;;;;2.50;0.80;;;;;;;9.18;75.59;95707.47;1016900;29;20111;-78
2021/05/26 01:22:00;;;;;;;3.33;1.15;;;;;;;9.27;75.60;95720.69;1017101;29;20041;-78
2021/05/26 01:22:31;;;;;;;2.10;0.90;;;;;;;9.30;75.45;95725.63;1021516;29;20026;-76
2021/05/26 01:23:02;;;;;;;2.17;0.85;;;;;;;9.26;75.60;95725.16;1021367;29;20020;-77
2021/05/26 01:23:33;;;;;;;3.58;0.80;;;;;;;9.21;75.34;95717.75;1025013;29;20027;-77
2021/05/26 01:24:04;;;;;;;2.05;1.00;;;;;;;9.28;75.57;95725.81;1020906;29;20135;-78
2021/05/26 01:24:35;;;;;;;2.08;0.90;;;;;;;9.28;75.98;95728.44;1017045;29;20457;-76
2021/05/26 01:25:06;;;;;;;1.88;0.90;;;;;;;9.14;75.95;95697.41;1017311;29;20024;-78
2021/05/26 01:25:37;;;;;;;3.78;0.93;;;;;;;8.99;75.71;95682.25;1021616;29;20067;-77
2021/05/26 01:26:08;;;;;;;2.95;0.93;;;;;;;9.19;75.62;95727.66;1017559;29;20080;-77
2021/05/26 01:26:39;;;;;;;2.17;0.90;;;;;;;9.16;75.88;95721.88;1016925;29;20034;-76
2021/05/26 01:27:09;;;;;;;3.05;1.17;;;;;;;9.11;75.64;95709.19;1017585;29;20020;-77
2021/05/26 01:27:40;;;;;;;3.22;0.77;;;;;;;8.85;76.19;95675.03;1017640;29;20024;-78
2021/05/26 01:28:11;;;;;;;2.35;0.90;;;;;;;8.99;76.04;95702.63;1021327;29;20496;-78
2021/05/26 01:28:41;;;;;;;2.50;0.68;;;;;;;9.13;76.15;95717.78;1017289;29;20050;-77
2021/05/26 01:29:13;;;;;;;2.28;1.02;;;;;;;9.07;76.73;95710.50;1021641;29;20023;-78
2021/05/26 01:29:44;;;;;;;2.25;0.85;;;;;;;8.96;76.83;95695.00;1013892;29;20039;-78
2021/05/26 01:30:15;;;;;;;3.47;1.13;;;;;;;8.89;77.01;95686.91;1009796;29;20499;-78
2021/05/26 01:30:46;;;;;;;2.42;0.85;;;;;;;8.99;76.93;95692.03;1009717;29;20037;-77
2021/05/26 01:31:17;;;;;;;2.97;1.00;;;;;;;9.06;77.28;95698.28;1013418;29;20514;-77
2021/05/26 01:31:47;;;;;;;4.10;0.90;;;;;;;9.11;77.13;95708.34;1019371;29;20034;-77
2021/05/26 01:32:18;;;;;;;3.25;0.98;;;;;;;8.94;77.28;95683.75;1023280;29;20120;-77
2021/05/26 01:32:49;;;;;;;3.03;0.90;;;;;;;9.03;77.31;95694.13;1022404;29;20058;-77
2021/05/26 01:33:20;;;;;;;3.03;1.00;;;;;;;9.04;77.29;95705.56;1021498;29;20020;-78
2021/05/26 01:33:51;;;;;;;33.03;2.85;;;;;;;8.93;78.44;95679.44;1021197;29;20024;-76
2021/05/26 01:34:21;;;;;;;15.55;2.33;;;;;;;9.11;79.16;95708.34;1022007;29;20031;-77
2021/05/26 01:34:52;;;;;;;4.07;1.20;;;;;;;9.05;78.84;95712.50;1021427;29;20020;-78
2021/05/26 01:35:23;;;;;;;6.45;1.27;;;;;;;9.04;79.98;95702.91;1021228;29;20028;-76
2021/05/26 01:35:53;;;;;;;4.18;1.02;;;;;;;8.91;80.23;95695.50;1021315;29;20032;-77
2021/05/26 01:36:24;;;;;;;2.67;1.05;;;;;;;8.87;80.66;95689.72;1013448;29;20491;-76
2021/05/26 01:36:55;;;;;;;1.40;0.77;;;;;;;8.83;80.85;95679.66;1020948;29;20035;-77
2021/05/26 01:37:25;;;;;;;3.90;1.13;;;;;;;8.75;81.34;95671.75;1013216;29;20441;-78
2021/05/26 01:37:56;;;;;;;2.92;1.00;;;;;;;8.94;81.41;95704.94;1017136;29;20098;-77
2021/05/26 01:38:26;;;;;;;4.13;0.90;;;;;;;8.86;81.96;95701.34;1017220;29;20072;-76
2021/05/26 01:38:57;;;;;;;3.25;0.90;;;;;;;8.82;82.28;95705.31;1020896;29;20027;-77
2021/05/26 01:39:28;;;;;;;3.08;0.60;;;;;;;8.87;81.69;95710.91;1021117;29;20027;-77
2021/05/26 01:39:58;;;;;;;3.20;1.45;;;;;;;8.71;81.37;95684.50;1017263;29;20030;-77
2021/05/26 01:40:29;;;;;;;2.05;0.80;;;;;;;8.70;81.67;95685.50;1021028;29;20020;-78
2021/05/26 01:41:02;;;;;;;5.25;0.90;;;;;;;8.83;82.34;95699.03;1016953;29;20035;-77
2021/05/26 01:41:33;;;;;;;2.00;0.80;;;;;;;8.83;82.10;95709.63;1017197;29;20383;-77
2021/05/26 01:42:04;;;;;;;4.30;0.90;;;;;;;8.84;82.24;95697.19;1013109;29;20035;-77
2021/05/26 01:42:35;;;;;;;4.10;0.88;;;;;;;8.81;82.76;95703.66;1017057;29;20027;-77
2021/05/26 01:43:08;;;;;;;2.47;0.88;;;;;;;8.68;82.43;95679.56;1017167;28;20095;-78
2021/05/26 01:43:39;;;;;;;3.25;1.40;;;;;;;8.80;82.65;95702.00;1025346;29;20054;-79
2021/05/26 01:44:10;;;;;;;3.25;0.95;;;;;;;8.60;83.57;95671.63;1016962;29;20060;-77
2021/05/26 01:44:40;;;;;;;2.83;0.90;;;;;;;8.63;83.05;95687.19;1012984;29;20017;-76
2021/05/26 01:45:14;;;;;;;3.30;1.00;;;;;;;8.66;83.74;95692.13;1017103;29;20391;-77
2021/05/26 01:45:55;;;;;;;2.33;0.98;;;;;;;8.73;83.86;95702.88;1013590;29;20031;-75
2021/05/26 01:46:26;;;;;;;3.22;1.00;;;;;;;8.67;83.99;95696.41;1016964;29;20111;-77
2021/05/26 01:46:57;;;;;;;2.67;0.82;;;;;;;8.54;84.52;95667.03;1013236;29;20029;-77
2021/05/26 01:47:28;;;;;;;1.55;0.70;;;;;;;8.64;84.47;95689.66;1008866;29;20048;-78
2021/05/26 01:47:59;;;;;;;2.42;0.95;;;;;;;8.44;84.35;95662.75;1020576;29;20041;-79
2021/05/26 01:48:29;;;;;;;3.60;1.00;;;;;;;8.59;84.56;95684.03;1020631;29;20031;-78
2021/05/26 01:49:07;;;;;;;2.33;1.08;;;;;;;8.68;83.88;95701.53;1028686;28;20029;-78
2021/05/26 01:49:39;;;;;;;3.85;0.90;;;;;;;8.65;84.39;95701.06;1019248;29;20036;-76
2021/05/26 01:50:21;;;;;;;5.38;1.30;;;;;;;8.64;84.76;95702.06;1008949;29;20476;-77
2021/05/26 01:50:55;;;;;;;4.30;1.50;;;;;;;8.62;85.05;95696.09;1012993;29;20020;-78
2021/05/26 01:51:26;;;;;;;4.22;1.17;;;;;;;8.45;84.79;95672.34;1016761;29;20024;-77
2021/05/26 01:51:56;;;;;;;4.25;1.10;;;;;;;8.37;83.91;95661.72;1016663;29;20560;-77
2021/05/26 01:52:27;;;;;;;3.17;0.73;;;;;;;8.55;84.80;95684.53;1020760;29;20022;-77
2021/05/26 01:52:59;;;;;;;2.33;1.00;;;;;;;8.44;85.06;95673.31;1017048;29;20028;-76
2021/05/26 01:53:30;;;;;;;2.60;1.00;;;;;;;8.44;84.04;95668.03;1013025;29;20021;-78
2021/05/26 01:54:02;;;;;;;2.97;1.10;;;;;;;8.62;84.50;95706.69;1013639;29;20443;-76
2021/05/26 01:54:33;;;;;;;3.17;1.13;;;;;;;8.61;83.66;95700.56;1016334;29;20029;-76
2021/05/26 01:55:04;;;;;;;1.77;0.75;;;;;;;8.48;84.37;95679.94;1024917;29;20023;-77
2021/05/26 01:55:36;;;;;;;1.80;0.85;;;;;;;8.47;84.26;95685.41;1024983;29;20059;-79
2021/05/26 01:56:14;;;;;;;2.60;0.70;;;;;;;8.43;83.98;95676.97;1017287;29;20076;-78
2021/05/26 01:56:45;;;;;;;2.30;0.70;;;;;;;8.57;84.59;95698.44;1024995;29;20082;-77
2021/05/26 01:57:16;;;;;;;2.95;0.80;;;;;;;8.40;85.02;95674.63;1017279;29;20099;-77
2021/05/26 01:57:47;;;;;;;2.40;0.85;;;;;;;8.52;85.11;95701.59;1017096;29;20466;-77
2021/05/26 01:58:17;;;;;;;2.38;0.90;;;;;;;8.50;85.60;95700.94;1016792;29;20035;-78
2021/05/26 01:58:52;;;;;;;3.25;0.93;;;;;;;8.53;84.59;95697.13;1017176;29;20059;-78
2021/05/26 01:59:25;;;;;;;6.22;0.95;;;;;;;8.45;84.96;95677.63;1009546;29;20411;-78
2021/05/26 01:59:55;;;;;;;2.53;1.10;;;;;;;8.56;82.25;95688.84;1013339;29;20024;-78
2021/05/26 02:00:26;;;;;;;2.38;0.80;;;;;;;8.64;81.22;95694.13;1016989;29;20151;-78
2021/05/26 02:00:57;;;;;;;2.45;0.90;;;;;;;8.65;81.04;95695.75;1013286;29;20027;-76
2021/05/26 02:01:27;;;;;;;4.88;1.10;;;;;;;8.44;81.76;95654.78;1017057;29;20111;-77
2021/05/26 02:01:58;;;;;;;1.92;0.80;;;;;;;8.63;80.71;95687.19;1028785;28;20023;-78
2021/05/26 02:02:29;;;;;;;1.92;1.10;;;;;;;8.66;80.87;95684.19;1016985;29;20501;-76
2021/05/26 02:02:59;;;;;;;2.00;0.88;;;;;;;8.49;80.12;95655.13;1020712;29;20032;-78
2021/05/26 02:03:30;;;;;;;3.47;0.80;;;;;;;8.75;79.44;95698.22;1020938;29;20015;-77
2021/05/26 02:04:01;;;;;;;1.90;0.68;;;;;;;8.65;79.18;95678.06;1016732;29;20027;-76
2021/05/26 02:04:32;;;;;;;3.60;0.57;;;;;;;8.73;78.99;95684.34;1028639;28;20015;-78
2021/05/26 02:05:04;;;;;;;3.72;0.90;;;;;;;8.71;78.84;95681.00;1016622;29;20016;-78
2021/05/26 02:05:35;;;;;;;1.88;0.70;;;;;;;8.80;78.42;95686.13;1016933;29;20067;-80
2021/05/26 02:06:06;;;;;;;2.33;0.80;;;;;;;8.79;78.24;95681.81;1017066;29;20047;-76
2021/05/26 02:06:37;;;;;;;2.17;0.82;;;;;;;8.79;77.45;95687.09;1020655;29;20027;-78
2021/05/26 02:07:11;;;;;;;1.58;0.82;;;;;;;8.74;78.08;95678.03;1020422;29;20420;-79
2021/05/26 02:07:41;;;;;;;2.47;0.75;;;;;;;8.74;77.48;95668.25;1020568;29;20102;-78
2021/05/26 02:08:12;;;;;;;2.80;0.80;;;;;;;8.64;77.36;95649.94;1012358;29;20027;-77
2021/05/26 02:08:44;;;;;;;3.63;1.10;;;;;;;8.65;77.23;95654.22;1020481;29;20466;-77
2021/05/26 02:09:14;;;;;;;5.28;1.40;;;;;;;8.75;77.24;95675.22;1024335;29;20118;-77
2021/05/26 02:09:45;;;;;;;8.57;1.10;;;;;;;8.80;77.18;95685.31;1016497;29;20414;-77
2021/05/26 02:10:17;;;;;;;1.75;0.80;;;;;;;8.85;77.47;95688.28;1020568;29;20374;-77
2021/05/26 02:12:32;;;;;;;3.63;0.77;;;;;;;8.65;76.61;95653.41;1020259;29;20521;-78
2021/05/26 02:13:03;;;;;;;2.03;0.70;;;;;;;8.63;76.86;95655.41;1018362;29;20028;-77
2021/05/26 02:13:33;;;;;;;3.20;0.88;;;;;;;8.65;75.86;95658.72;1024516;29;20020;-76
2021/05/26 02:14:06;;;;;;;1.58;0.77;;;;;;;8.75;76.38;95672.56;1024340;29;20027;-77
2021/05/26 02:14:36;;;;;;;3.00;1.08;;;;;;;8.76;76.49;95684.81;1020426;29;20024;-77
2021/05/26 02:15:09;;;;;;;3.95;1.00;;;;;;;8.79;76.69;95681.00;1024481;29;20023;-78
2021/05/26 02:15:39;;;;;;;2.72;0.95;;;;;;;8.51;76.21;95627.66;1012648;29;20028;-77
2021/05/26 02:16:10;;;;;;;2.92;0.80;;;;;;;8.83;76.34;95687.59;1013300;29;20076;-77
2021/05/26 02:16:40;;;;;;;2.63;0.80;;;;;;;8.82;76.03;95684.13;1016780;29;20506;-77
2021/05/26 02:17:11;;;;;;;2.60;0.80;;;;;;;8.66;76.20;95661.19;1016638;29;20115;-76
2021/05/26 02:17:42;;;;;;;1.30;0.60;;;;;;;8.65;76.02;95664.81;1020426;29;20096;-77
2021/05/26 02:18:12;;;;;;;1.90;0.70;;;;;;;8.77;76.24;95681.16;1012399;29;20513;-76
2021/05/26 02:18:43;;;;;;;4.22;0.85;;;;;;;8.73;76.25;95679.06;1012777;29;20025;-77
2021/05/26 02:19:14;;;;;;;2.63;1.08;;;;;;;8.74;76.41;95683.31;1020418;29;20016;-76
2021/05/26 02:19:44;;;;;;;1.88;0.93;;;;;;;8.60;76.31;95658.41;1016446;29;20107;-76
2021/05/26 02:20:15;;;;;;;1.48;0.70;;;;;;;8.65;76.70;95666.66;1012523;29;20043;-76
2021/05/26 02:20:46;;;;;;;3.22;0.70;;;;;;;8.76;76.44;95678.69;1012563;29;20020;-79
2021/05/26 02:21:16;;;;;;;5.78;0.93;;;;;;;8.65;76.46;95669.28;1020725;29;20511;-78
2021/05/26 02:21:47;;;;;;;2.40;0.77;;;;;;;8.62;76.30;95659.03;1016436;29;20083;-77
2021/05/26 02:22:18;;;;;;;2.35;0.82;;;;;;;8.71;76.60;95679.22;1016425;29;20118;-77
2021/05/26 02:22:48;;;;;;;1.85;0.70;;;;;;;8.65;76.64;95664.81;1016380;29;20031;-77
2021/05/26 02:23:19;;;;;;;2.42;0.70;;;;;;;8.73;76.40;95677.22;1012554;29;20443;-77
2021/05/26 02:23:50;;;;;;;2.22;0.80;;;;;;;8.52;76.82;95650.47;1016595;29;20035;-77
2021/05/26 02:24:20;;;;;;;2.78;1.00;;;;;;;8.73;76.64;95671.94;1020511;29;20078;-78
2021/05/26 02:24:51;;;;;;;5.78;1.05;;;;;;;8.63;76.89;95658.06;1016473;29;20027;-77
2021/05/26 02:25:22;;;;;;;3.20;0.80;;;;;;;8.58;76.94;95649.81;1020511;29;20020;-78
2021/05/26 02:25:52;;;;;;;1.90;0.90;;;;;;;8.72;77.21;95672.09;1020576;29;20031;-77
2021/05/26 02:26:23;;;;;;;2.65;0.70;;;;;;;8.74;77.02;95678.03;1020595;29;20447;-77
2021/05/26 02:26:54;;;;;;;2.53;0.75;;;;;;;8.63;77.14;95668.66;1016267;29;20032;-77
2021/05/26 02:27:24;;;;;;;1.75;0.60;;;;;;;8.67;76.99;95676.09;1016583;29;20028;-77
2021/05/26 02:27:55;;;;;;;2.58;0.70;;;;;;;8.60;76.98;95666.34;1020379;29;20031;-76
2021/05/26 02:28:26;;;;;;;3.50;0.80;;;;;;;8.66;76.83;95681.56;1020397;29;20393;-76
2021/05/26 02:28:56;;;;;;;2.08;0.60;;;;;;;8.57;77.44;95664.03;1016514;29;20127;-76
2021/05/26 02:29:27;;;;;;;1.30;0.70;;;;;;;8.65;77.36;95682.53;1024557;29;20039;-77
2021/05/26 02:29:57;;;;;;;1.83;0.65;;;;;;;8.59;77.61;95673.47;1020555;29;20042;-78
2021/05/26 02:30:28;;;;;;;2.15;0.65;;;;;;;8.60;77.93;95683.03;1020490;29;20478;-78
2021/05/26 02:30:59;;;;;;;1.73;0.88;;;;;;;8.52;77.59;95669.00;1020304;29;20033;-78